Time;durP1;ratioP1;P1;durP2;ratioP2;P2;SDS_P1;SDS_P2;PMS_P1;PMS_P2;Temp;Humidity;BMP_temperature;BMP_pressure;BME280_temperature;BME280_humidity;BME280_pressure;Samples;Min_cycle;Max_cycle;Signal;HPM_P1;HPM_P2
2023/03/19 00:00:35;;;;;;;;;;;;;;;11.29;100.00;101009.22;10457045;28;19956;-67
2023/03/19 00:05:37;;;;;;;;;;;;;;;11.43;100.00;101006.69;10457227;28;19924;-67
2023/03/19 00:10:39;;;;;;;;;;;;;;;10.94;100.00;100998.94;10458192;28;19925;-67
2023/03/19 00:15:41;;;;;;;;;;;;;;;11.07;100.00;101005.19;10458006;28;19929;-68
2023/03/19 00:20:43;;;;;;;;;;;;;;;10.95;100.00;101011.97;10454915;28;20441;-67
2023/03/19 00:25:46;;;;;;;;;;;;;;;11.04;100.00;101010.59;10457754;28;19932;-67
2023/03/19 00:30:48;;;;;;;;;;;;;;;10.78;100.00;101010.28;10457086;28;19925;-67
2023/03/19 00:35:50;;;;;;;;;;;;;;;10.74;100.00;101007.91;10456302;28;19999;-67
2023/03/19 00:40:53;;;;;;;;;;;;;;;10.78;100.00;101007.66;10455153;28;19935;-67
2023/03/19 00:45:55;;;;;;;;;;;;;;;10.82;100.00;101015.34;10457295;28;19953;-67
2023/03/19 00:51:04;;;;;;;;;;;;;;;10.97;100.00;101012.72;10456527;28;19925;-67
2023/03/19 00:56:07;;;;;;;;;;;;;;;10.75;100.00;101017.47;10456506;28;19932;-67
2023/03/19 01:01:10;;;;;;;;;;;;;;;10.67;100.00;101007.41;10455326;28;19924;-67
2023/03/19 01:06:12;;;;;;;;;;;;;;;10.62;100.00;101019.06;10456937;28;19947;-67
2023/03/19 01:11:16;;;;;;;;;;;;;;;10.50;100.00;101018.78;10463620;28;19932;-67
2023/03/19 01:16:18;;;;;;;;;;;;;;;10.54;100.00;101022.06;10464250;28;19932;-67
2023/03/19 01:21:20;;;;;;;;;;;;;;;10.31;100.00;101037.22;10462931;28;20383;-68
2023/03/19 01:26:23;;;;;;;;;;;;;;;10.41;100.00;101017.50;10464542;28;20016;-68
2023/03/19 01:31:25;;;;;;;;;;;;;;;10.31;100.00;101020.69;10464301;28;19924;-68
2023/03/19 01:36:28;;;;;;;;;;;;;;;10.52;100.00;101024.81;10462871;28;19952;-68
2023/03/19 01:41:30;;;;;;;;;;;;;;;10.54;100.00;101009.84;10462633;28;20387;-68
2023/03/19 01:46:33;;;;;;;;;;;;;;;10.48;100.00;101006.72;10462462;28;20380;-68
2023/03/19 01:51:37;;;;;;;;;;;;;;;10.37;100.00;101005.53;10462363;28;20360;-68
2023/03/19 01:56:40;;;;;;;;;;;;;;;10.45;100.00;100999.03;10420976;28;19974;-68
2023/03/19 02:01:45;;;;;;;;;;;;;;;10.47;100.00;101003.22;10420073;28;19952;-68
2023/03/19 02:06:47;;;;;;;;;;;;;;;10.14;100.00;100998.84;10423548;28;20006;-68
2023/03/19 02:11:50;;;;;;;;;;;;;;;10.45;100.00;101001.66;10459904;28;19951;-68
2023/03/19 02:16:52;;;;;;;;;;;;;;;9.88;100.00;101005.41;10461855;28;19925;-68
2023/03/19 02:21:55;;;;;;;;;;;;;;;10.09;100.00;101018.34;10459710;28;19925;-68
2023/03/19 02:26:58;;;;;;;;;;;;;;;10.09;100.00;101018.34;10459002;28;19925;-68
2023/03/19 02:32:02;;;;;;;;;;;;;;;10.49;100.00;101005.78;10460284;28;19925;-68
2023/03/19 02:37:07;;;;;;;;;;;;;;;10.44;100.00;101006.03;10461130;28;19995;-68
2023/03/19 02:42:10;;;;;;;;;;;;;;;10.43;100.00;101009.56;10460033;28;19975;-68
2023/03/19 02:47:12;;;;;;;;;;;;;;;10.30;100.00;101014.56;10460783;28;20312;-68
2023/03/19 02:52:15;;;;;;;;;;;;;;;10.45;100.00;101014.72;10461238;28;19925;-68
2023/03/19 02:57:17;;;;;;;;;;;;;;;10.44;100.00;101019.13;10460427;28;19978;-68
2023/03/19 03:02:19;;;;;;;;;;;;;;;10.36;100.00;101018.69;10459466;28;19925;-68
2023/03/19 03:07:21;;;;;;;;;;;;;;;10.67;100.00;101024.91;10460147;28;19992;-68
2023/03/19 03:12:24;;;;;;;;;;;;;;;10.51;100.00;101023.09;10459099;28;20380;-68
2023/03/19 03:17:26;;;;;;;;;;;;;;;10.64;100.00;101025.91;10460212;28;19925;-67
2023/03/19 03:22:29;;;;;;;;;;;;;;;10.60;100.00;101027.84;10458497;28;19925;-67
2023/03/19 03:27:31;;;;;;;;;;;;;;;10.69;100.00;101033.50;10458003;28;19924;-67
2023/03/19 03:32:34;;;;;;;;;;;;;;;10.80;100.00;101025.09;10457911;28;19998;-67
2023/03/19 03:37:36;;;;;;;;;;;;;;;10.70;100.00;101030.81;10459379;28;19932;-67
2023/03/19 03:42:39;;;;;;;;;;;;;;;10.59;100.00;101044.47;10457280;28;20008;-67
2023/03/19 03:47:41;;;;;;;;;;;;;;;10.64;100.00;101043.38;10458368;28;20330;-67
2023/03/19 03:52:43;;;;;;;;;;;;;;;10.46;100.00;101040.81;10458843;28;19929;-67
2023/03/19 03:57:45;;;;;;;;;;;;;;;10.57;100.00;101041.13;10457822;28;19928;-67
2023/03/19 04:02:47;;;;;;;;;;;;;;;10.55;100.00;101042.09;10457604;28;20253;-67
2023/03/19 04:07:50;;;;;;;;;;;;;;;10.51;100.00;101048.44;10458378;28;19971;-67
2023/03/19 04:12:52;;;;;;;;;;;;;;;10.38;100.00;101043.00;10457397;28;19924;-67
2023/03/19 04:17:54;;;;;;;;;;;;;;;10.44;100.00;101047.06;10457998;28;19929;-67
2023/03/19 04:22:57;;;;;;;;;;;;;;;10.30;100.00;101056.44;10457867;28;19932;-67
2023/03/19 04:27:59;;;;;;;;;;;;;;;10.50;100.00;101062.44;10457333;28;19951;-67
2023/03/19 04:33:02;;;;;;;;;;;;;;;10.11;100.00;101063.56;10457677;28;19925;-68
2023/03/19 04:38:04;;;;;;;;;;;;;;;10.07;100.00;101062.03;10456285;28;19929;-67
2023/03/19 04:43:06;;;;;;;;;;;;;;;9.97;100.00;101067.72;10457052;28;19974;-67
2023/03/19 04:48:08;;;;;;;;;;;;;;;9.55;100.00;101071.56;10456620;28;20376;-67
2023/03/19 04:53:11;;;;;;;;;;;;;;;9.39;100.00;101071.44;10455509;28;19931;-67
2023/03/19 04:58:13;;;;;;;;;;;;;;;9.54;100.00;101082.09;10457123;28;19983;-68
2023/03/19 05:03:16;;;;;;;;;;;;;;;9.37;100.00;101090.75;10456235;28;19928;-67
2023/03/19 05:08:18;;;;;;;;;;;;;;;9.17;100.00;101082.06;10456237;28;19931;-68
2023/03/19 05:13:20;;;;;;;;;;;;;;;9.12;100.00;101084.03;10456821;28;19924;-67
2023/03/19 05:18:22;;;;;;;;;;;;;;;9.07;100.00;101096.47;10455372;28;19924;-67
2023/03/19 05:23:25;;;;;;;;;;;;;;;9.36;100.00;101092.47;10456012;28;20295;-67
2023/03/19 05:28:27;;;;;;;;;;;;;;;9.49;100.00;101095.38;10455905;28;20392;-67
2023/03/19 05:33:29;;;;;;;;;;;;;;;9.19;100.00;101100.28;10454487;28;19925;-68
2023/03/19 05:38:31;;;;;;;;;;;;;;;9.07;100.00;101104.31;10455407;28;19925;-67
2023/03/19 05:43:34;;;;;;;;;;;;;;;8.79;100.00;101110.78;10429745;28;19929;-68
2023/03/19 05:48:36;;;;;;;;;;;;;;;8.95;100.00;101112.72;10414355;28;19932;-68
2023/03/19 05:53:39;;;;;;;;;;;;;;;8.64;100.00;101114.06;10414886;28;19932;-67
2023/03/19 05:58:41;;;;;;;;;;;;;;;8.65;100.00;101123.63;10450796;28;19987;-68
2023/03/19 06:03:43;;;;;;;;;;;;;;;8.43;100.00;101119.31;10463606;28;19932;-67
2023/03/19 06:08:45;;;;;;;;;;;;;;;8.63;100.00;101126.28;10462268;28;19972;-68
2023/03/19 06:13:48;;;;;;;;;;;;;;;8.37;100.00;101127.38;10462218;28;19925;-67
2023/03/19 06:18:50;;;;;;;;;;;;;;;8.48;100.00;101135.63;10461918;28;20449;-67
2023/03/19 06:23:52;;;;;;;;;;;;;;;8.36;100.00;101139.59;10460118;28;20384;-67
2023/03/19 06:28:54;;;;;;;;;;;;;;;8.62;100.00;101142.84;10461555;28;19924;-67
2023/03/19 06:33:57;;;;;;;;;;;;;;;8.67;100.00;101153.94;10462040;28;19925;-68
2023/03/19 06:38:59;;;;;;;;;;;;;;;8.91;100.00;101154.63;10460456;28;19929;-67
2023/03/19 06:44:02;;;;;;;;;;;;;;;9.55;100.00;101155.19;10459841;28;20304;-68
2023/03/19 06:49:05;;;;;;;;;;;;;;;9.22;100.00;101171.53;10459644;28;19929;-68
2023/03/19 06:54:07;;;;;;;;;;;;;;;9.69;100.00;101174.63;10459546;28;19932;-67
2023/03/19 06:59:11;;;;;;;;;;;;;;;9.71;100.00;101178.84;10458820;28;20039;-68
2023/03/19 07:04:14;;;;;;;;;;;;;;;9.88;100.00;101178.03;10458115;28;19929;-68
2023/03/19 07:09:16;;;;;;;;;;;;;;;10.09;100.00;101185.78;10459891;28;19925;-68
2023/03/19 07:14:19;;;;;;;;;;;;;;;10.45;100.00;101193.56;10480849;22;19924;-65
2023/03/19 07:19:21;;;;;;;;;;;;;;;10.09;100.00;101185.78;10501578;28;19925;-65
2023/03/19 07:24:24;;;;;;;;;;;;;;;10.74;100.00;101196.47;10460079;28;19971;-65
2023/03/19 07:29:26;;;;;;;;;;;;;;;10.53;100.00;101203.66;10471516;28;19925;-65
2023/03/19 07:34:28;;;;;;;;;;;;;;;10.72;100.00;101207.03;10505187;28;20295;-66
2023/03/19 07:39:30;;;;;;;;;;;;;;;10.81;100.00;101207.47;10500031;28;20318;-65
2023/03/19 07:44:32;;;;;;;;;;;;;;;10.69;100.00;101214.19;10500605;28;19931;-65
2023/03/19 07:49:35;;;;;;;;;;;;;;;10.60;100.00;101215.50;10500586;28;19929;-65
2023/03/19 07:54:37;;;;;;;;;;;;;;;11.01;100.00;101216.91;10495740;28;20379;-65
2023/03/19 07:59:39;;;;;;;;;;;;;;;11.34;100.00;101207.25;10498017;28;19970;-66
2023/03/19 08:04:41;;;;;;;;;;;;;;;11.94;100.00;101210.19;10505996;28;19924;-65
2023/03/19 08:09:43;;;;;;;;;;;;;;;12.40;100.00;101205.72;10499595;28;19970;-65
2023/03/19 08:14:46;;;;;;;;;;;;;;;12.26;100.00;101213.59;10495484;28;20410;-65
2023/03/19 08:19:48;;;;;;;;;;;;;;;13.18;100.00;101215.97;10499179;28;19924;-65
2023/03/19 08:24:50;;;;;;;;;;;;;;;12.66;97.88;101220.88;10501834;28;19925;-65
2023/03/19 08:29:52;;;;;;;;;;;;;;;12.70;100.00;101223.25;10498014;28;20363;-65
2023/03/19 08:34:55;;;;;;;;;;;;;;;13.52;97.85;101219.16;10477065;28;19928;-65
2023/03/19 08:39:57;;;;;;;;;;;;;;;14.24;92.39;101229.47;10505033;28;19924;-65
2023/03/19 08:44:59;;;;;;;;;;;;;;;14.64;90.42;101229.47;10504695;28;19950;-65
2023/03/19 08:50:02;;;;;;;;;;;;;;;14.10;84.42;101235.63;10498610;28;19970;-65
2023/03/19 08:55:05;;;;;;;;;;;;;;;14.42;84.49;101227.38;10478065;28;20345;-65
2023/03/19 09:00:07;;;;;;;;;;;;;;;16.26;83.58;101240.97;10457027;28;19925;-65
2023/03/19 09:05:10;;;;;;;;;;;;;;;16.11;78.32;101242.94;10457007;28;19933;-66
2023/03/19 09:10:12;;;;;;;;;;;;;;;15.46;77.87;101244.91;10456366;28;20310;-66
2023/03/19 09:15:14;;;;;;;;;;;;;;;15.92;75.57;101256.63;10456446;28;19971;-66
2023/03/19 09:20:16;;;;;;;;;;;;;;;16.19;76.11;101252.91;10456677;28;19983;-67
2023/03/19 09:25:19;;;;;;;;;;;;;;;15.86;73.74;101252.63;10456624;28;19928;-66
2023/03/19 09:30:21;;;;;;;;;;;;;;;16.01;72.39;101261.25;10459479;28;20329;-66
2023/03/19 09:35:23;;;;;;;;;;;;;;;17.00;71.13;101262.69;10464352;28;20007;-66
2023/03/19 09:40:29;;;;;;;;;;;;;;;17.82;70.86;101270.34;10463603;28;19996;-66
2023/03/19 09:45:31;;;;;;;;;;;;;;;15.89;70.66;101262.16;10462789;28;19924;-64
2023/03/19 09:50:35;;;;;;;;;;;;;;;14.95;72.77;101271.34;10463130;28;19971;-65
2023/03/19 09:55:47;;;;;;;;;;;;;;;15.55;70.78;101275.06;10445871;28;19925;-65
2023/03/19 10:00:50;;;;;;;;;;;;;;;15.89;71.30;101286.75;10463271;28;19924;-65
2023/03/19 10:05:58;;;;;;;;;;;;;;;16.81;68.51;101283.53;10462548;28;19932;-65
2023/03/19 10:11:19;;;;;;;;;;;;;;;15.26;71.30;101292.97;10461173;28;19928;-65
2023/03/19 10:16:23;;;;;;;;;;;;;;;14.31;73.17;101296.56;10461939;28;19955;-65
2023/03/19 10:21:39;;;;;;;;;;;;;;;14.54;73.41;101299.50;10461275;28;19978;-65
2023/03/19 10:26:41;;;;;;;;;;;;;;;14.36;74.73;101306.81;10461172;28;19924;-65
2023/03/19 10:32:03;;;;;;;;;;;;;;;15.18;74.09;101301.38;10460998;28;19975;-65
2023/03/19 10:37:12;;;;;;;;;;;;;;;15.04;74.82;101297.91;10461305;28;19963;-65
2023/03/19 10:42:32;;;;;;;;;;;;;;;18.65;66.15;101301.66;10460975;28;19939;-65
2023/03/19 10:47:38;;;;;;;;;;;;;;;18.47;64.51;101304.00;10460890;28;19983;-65
2023/03/19 10:52:41;;;;;;;;;;;;;;;17.62;62.12;101306.38;10459555;28;20330;-65
2023/03/19 10:57:44;;;;;;;;;;;;;;;19.56;59.46;101301.88;10460501;28;19990;-65
2023/03/19 11:02:47;;;;;;;;;;;;;;;19.59;61.88;101312.25;10443277;28;19926;-66
2023/03/19 11:07:50;;;;;;;;;;;;;;;18.48;59.70;101308.34;10459625;28;19928;-66
2023/03/19 11:12:59;;;;;;;;;;;;;;;19.77;60.58;101309.81;10458809;28;20284;-66
2023/03/19 11:18:06;;;;;;;;;;;;;;;22.06;55.90;101311.66;10458591;28;20391;-66
2023/03/19 11:23:13;;;;;;;;;;;;;;;21.60;53.38;101306.34;10462065;28;19983;-65
2023/03/19 11:28:24;;;;;;;;;;;;;;;18.72;57.03;101310.75;10478785;28;20264;-65
2023/03/19 11:33:27;;;;;;;;;;;;;;;18.22;59.60;101316.63;10508761;28;19992;-66
2023/03/19 11:38:35;;;;;;;;;;;;;;;18.58;60.42;101314.56;10501262;28;19970;-65
2023/03/19 11:43:45;;;;;;;;;;;;;;;17.97;58.60;101323.06;10499985;28;20381;-65
2023/03/19 11:49:01;;;;;;;;;;;;;;;17.75;62.24;101323.91;10482190;28;19925;-66
2023/03/19 11:54:21;;;;;;;;;;;;;;;16.90;63.19;101319.91;10481758;28;19924;-66
2023/03/19 11:59:33;;;;;;;;;;;;;;;17.02;62.23;101323.41;10482310;28;19931;-66
2023/03/19 12:04:40;;;;;;;;;;;;;;;16.14;63.92;101317.50;10499385;28;19935;-65
2023/03/19 12:10:04;;;;;;;;;;;;;;;16.67;66.54;101314.50;10499762;28;19929;-66
2023/03/19 12:15:07;;;;;;;;;;;;;;;16.31;67.35;101320.72;10479463;28;19924;-65
2023/03/19 12:20:10;;;;;;;;;;;;;;;15.58;71.18;101331.16;10502194;28;19924;-65
2023/03/19 12:25:19;;;;;;;;;;;;;;;14.90;75.99;101334.91;10498750;28;19994;-65
2023/03/19 12:30:41;;;;;;;;;;;;;;;15.04;77.10;101329.53;10478615;28;19925;-65
2023/03/19 12:35:45;;;;;;;;;;;;;;;15.04;79.80;101333.97;10457490;28;20276;-66
2023/03/19 12:40:51;;;;;;;;;;;;;;;16.14;80.17;101329.88;10455701;28;20447;-65
2023/03/19 12:45:55;;;;;;;;;;;;;;;17.65;69.57;101331.75;10455666;28;19924;-65
2023/03/19 12:51:01;;;;;;;;;;;;;;;20.44;61.67;101329.50;10455603;28;19947;-65
2023/03/19 12:56:06;;;;;;;;;;;;;;;18.24;67.84;101335.06;10456575;28;19924;-65
2023/03/19 13:01:13;;;;;;;;;;;;;;;23.13;56.26;101320.59;10456005;28;19925;-65
2023/03/19 13:06:18;;;;;;;;;;;;;;;22.12;58.77;101328.88;10460611;28;20379;-65
2023/03/19 13:11:24;;;;;;;;;;;;;;;23.39;52.45;101327.78;10463515;28;20367;-66
2023/03/19 13:16:27;;;;;;;;;;;;;;;22.67;54.14;101322.59;10463241;28;19933;-66
2023/03/19 13:21:30;;;;;;;;;;;;;;;21.77;54.88;101323.34;10464874;28;19932;-66
2023/03/19 13:26:32;;;;;;;;;;;;;;;19.38;61.22;101339.66;10463592;28;19925;-67
2023/03/19 13:31:35;;;;;;;;;;;;;;;20.67;60.29;101331.91;10463398;28;19924;-67
2023/03/19 13:36:40;;;;;;;;;;;;;;;21.58;56.25;101324.28;10462512;28;19925;-67
2023/03/19 13:41:42;;;;;;;;;;;;;;;20.88;55.92;101329.06;10462979;28;19925;-66
2023/03/19 13:46:45;;;;;;;;;;;;;;;22.90;53.44;101331.78;10463924;28;19986;-67
2023/03/19 13:51:47;;;;;;;;;;;;;;;24.35;51.36;101330.09;10463786;28;19931;-66
2023/03/19 13:57:03;;;;;;;;;;;;;;;22.69;51.18;101336.63;10462444;28;19925;-66
2023/03/19 14:02:20;;;;;;;;;;;;;;;20.28;58.28;101342.53;10462683;28;19929;-66
2023/03/19 14:07:26;;;;;;;;;;;;;;;18.89;58.24;101347.34;10462559;28;20287;-66
2023/03/19 14:12:31;;;;;;;;;;;;;;;20.53;57.84;101347.28;10462360;28;20426;-66
2023/03/19 14:17:39;;;;;;;;;;;;;;;21.22;58.71;101356.06;10460956;28;19936;-66
2023/03/19 14:23:01;;;;;;;;;;;;;;;19.34;58.93;101359.50;10461437;28;20016;-66
2023/03/19 14:28:08;;;;;;;;;;;;;;;19.47;58.70;101352.16;10462378;28;19925;-67
2023/03/19 14:33:37;;;;;;;;;;;;;;;21.36;55.44;101341.44;10462214;28;19925;-66
2023/03/19 14:38:41;;;;;;;;;;;;;;;22.82;53.95;101337.06;10438146;28;19979;-67
2023/03/19 14:44:03;;;;;;;;;;;;;;;22.10;51.22;101341.53;10460610;28;19975;-67
2023/03/19 14:49:24;;;;;;;;;;;;;;;22.87;50.69;101328.59;10461003;28;20346;-66
2023/03/19 14:54:45;;;;;;;;;;;;;;;23.96;49.03;101333.34;10443775;28;19929;-66
2023/03/19 14:59:47;;;;;;;;;;;;;;;23.62;49.98;101347.59;10461081;28;19925;-66
2023/03/19 15:04:50;;;;;;;;;;;;;;;22.70;49.45;101359.66;10459836;28;19925;-67
2023/03/19 15:09:53;;;;;;;;;;;;;;;21.78;51.50;101367.66;10460783;28;19974;-67
2023/03/19 15:15:11;;;;;;;;;;;;;;;22.08;51.24;101382.50;10459781;28;20304;-67
2023/03/19 15:20:18;;;;;;;;;;;;;;;19.99;57.64;101377.84;10459633;28;20327;-67
2023/03/19 15:25:20;;;;;;;;;;;;;;;20.71;54.37;101371.41;10459515;28;20368;-67
2023/03/19 15:30:26;;;;;;;;;;;;;;;18.65;58.66;101376.75;10458622;28;19924;-67
2023/03/19 15:35:31;;;;;;;;;;;;;;;20.91;57.56;101384.69;10459809;28;19960;-66
2023/03/19 15:40:33;;;;;;;;;;;;;;;22.47;50.88;101378.78;10459430;28;19932;-67
2023/03/19 15:45:36;;;;;;;;;;;;;;;22.03;53.12;101373.28;10459287;28;20016;-66
2023/03/19 15:50:40;;;;;;;;;;;;;;;21.57;51.79;101383.88;10457893;28;21592;-66
2023/03/19 15:55:42;;;;;;;;;;;;;;;20.11;51.79;101387.41;10457788;28;19924;-66
2023/03/19 16:00:45;;;;;;;;;;;;;;;23.79;47.53;101385.91;10456956;28;20288;-66
2023/03/19 16:06:04;;;;;;;;;;;;;;;23.53;46.95;101391.28;10458574;28;19931;-66
2023/03/19 16:11:14;;;;;;;;;;;;;;;20.03;54.81;101414.63;10457787;28;19925;-67
2023/03/19 16:16:17;;;;;;;;;;;;;;;18.64;59.18;101424.59;10457632;28;19929;-66
2023/03/19 16:21:36;;;;;;;;;;;;;;;19.05;58.27;101425.69;10456217;28;19948;-66
2023/03/19 16:26:39;;;;;;;;;;;;;;;16.49;63.36;101442.72;10456832;28;19978;-66
2023/03/19 16:31:50;;;;;;;;;;;;;;;16.74;63.25;101446.25;10457836;28;19975;-66
2023/03/19 16:36:52;;;;;;;;;;;;;;;15.98;65.27;101447.16;10457802;28;19925;-66
2023/03/19 16:42:10;;;;;;;;;;;;;;;14.79;68.91;101464.81;10456297;28;20387;-67
2023/03/19 16:47:13;;;;;;;;;;;;;;;15.48;67.46;101467.28;10456816;28;19925;-66
2023/03/19 16:52:17;;;;;;;;;;;;;;;15.57;67.98;101469.31;10457577;28;19933;-65
2023/03/19 16:57:19;;;;;;;;;;;;;;;15.27;66.48;101466.13;10456645;28;20453;-65
2023/03/19 17:02:21;;;;;;;;;;;;;;;14.41;69.09;101478.59;10455924;28;19925;-66
2023/03/19 17:07:24;;;;;;;;;;;;;;;14.38;70.27;101485.84;10457055;28;19925;-66
2023/03/19 17:12:26;;;;;;;;;;;;;;;14.91;68.57;101488.66;10475231;28;20303;-65
2023/03/19 17:17:28;;;;;;;;;;;;;;;13.60;71.47;101484.41;10506526;28;19924;-66
2023/03/19 17:22:31;;;;;;;;;;;;;;;13.91;71.11;101491.28;10530987;28;19969;-66
2023/03/19 17:27:33;;;;;;;;;;;;;;;13.47;71.92;101496.59;10499068;28;19932;-65
2023/03/19 17:32:36;;;;;;;;;;;;;;;13.47;74.48;101507.94;10484305;28;19929;-65
2023/03/19 17:37:39;;;;;;;;;;;;;;;13.23;75.52;101515.44;10481421;28;19931;-65
2023/03/19 17:42:41;;;;;;;;;;;;;;;13.46;75.80;101522.03;10480163;28;19924;-65
2023/03/19 17:47:45;;;;;;;;;;;;;;;13.16;76.94;101538.63;10498290;28;19928;-65
2023/03/19 17:52:48;;;;;;;;;;;;;;;13.05;78.87;101551.50;10485504;28;19924;-65
2023/03/19 17:57:51;;;;;;;;;;;;;;;12.87;79.81;101563.03;10504324;28;19924;-66
2023/03/19 18:02:53;;;;;;;;;;;;;;;13.01;78.57;101576.25;10505110;28;19978;-66
2023/03/19 18:07:56;;;;;;;;;;;;;;;12.60;82.51;101585.44;10504579;28;19924;-65
2023/03/19 18:12:59;;;;;;;;;;;;;;;12.23;81.53;101591.78;10505023;28;19974;-65
2023/03/19 18:18:02;;;;;;;;;;;;;;;12.00;87.80;101600.84;10504103;28;19924;-65
2023/03/19 18:23:05;;;;;;;;;;;;;;;11.82;87.50;101618.34;10504322;28;20330;-65
2023/03/19 18:28:07;;;;;;;;;;;;;;;11.74;89.14;101617.88;10503760;28;19929;-66
2023/03/19 18:33:11;;;;;;;;;;;;;;;11.55;89.03;101631.88;10505664;28;19925;-66
2023/03/19 18:38:15;;;;;;;;;;;;;;;11.69;90.22;101642.53;10485050;28;20035;-66
2023/03/19 18:43:18;;;;;;;;;;;;;;;11.10;95.52;101649.69;10502628;28;19991;-66
2023/03/19 18:48:22;;;;;;;;;;;;;;;10.69;99.69;101656.78;10485201;28;19970;-66
2023/03/19 18:53:25;;;;;;;;;;;;;;;10.55;100.00;101666.09;10484295;28;20329;-66
2023/03/19 18:58:28;;;;;;;;;;;;;;;10.67;100.00;101671.72;10501897;28;19994;-65
2023/03/19 19:03:31;;;;;;;;;;;;;;;10.78;100.00;101683.44;10501784;28;19924;-65
2023/03/19 19:08:34;;;;;;;;;;;;;;;10.59;100.00;101682.53;10483400;28;19924;-65
2023/03/19 19:13:36;;;;;;;;;;;;;;;10.62;100.00;101703.34;10501671;28;19932;-66
2023/03/19 19:18:56;;;;;;;;;;;;;;;10.75;100.00;101706.28;10501530;28;19928;-65
2023/03/19 19:24:00;;;;;;;;;;;;;;;10.84;99.10;101707.66;10502867;28;19969;-65
2023/03/19 19:29:03;;;;;;;;;;;;;;;10.81;98.86;101720.88;10509026;22;19925;-64
2023/03/19 19:34:05;;;;;;;;;;;;;;;10.51;100.00;101731.78;10501188;28;19932;-64
2023/03/19 19:39:08;;;;;;;;;;;;;;;10.08;100.00;101728.28;10498804;28;19928;-63
2023/03/19 19:44:17;;;;;;;;;;;;;;;10.08;99.60;101736.97;10499406;28;20406;-63
2023/03/19 19:49:20;;;;;;;;;;;;;;;9.97;100.00;101734.78;10480139;28;19924;-63
2023/03/19 19:54:23;;;;;;;;;;;;;;;10.03;100.00;101739.75;10482683;28;19924;-63
2023/03/19 19:59:26;;;;;;;;;;;;;;;10.03;99.04;101744.16;10494194;28;19967;-63
2023/03/19 20:04:28;;;;;;;;;;;;;;;9.49;100.00;101756.69;10497608;28;20303;-63
2023/03/19 20:09:31;;;;;;;;;;;;;;;9.95;100.00;101752.31;10481270;28;19925;-63
2023/03/19 20:14:33;;;;;;;;;;;;;;;9.49;100.00;101748.84;10497995;28;19947;-63
2023/03/19 20:19:36;;;;;;;;;;;;;;;9.56;100.00;101752.09;10497143;28;19924;-63
2023/03/19 20:24:38;;;;;;;;;;;;;;;9.54;100.00;101749.53;10498644;28;19925;-63
2023/03/19 20:29:40;;;;;;;;;;;;;;;9.00;100.00;101750.66;10497254;28;19924;-63
2023/03/19 20:34:43;;;;;;;;;;;;;;;9.19;100.00;101756.06;10498515;28;20367;-63
2023/03/19 20:39:45;;;;;;;;;;;;;;;9.20;100.00;101757.78;10497106;28;19925;-63
2023/03/19 20:44:47;;;;;;;;;;;;;;;9.33;100.00;101760.78;10496141;28;19929;-63
2023/03/19 20:49:50;;;;;;;;;;;;;;;9.11;100.00;101772.88;10480471;28;20429;-63
2023/03/19 20:54:52;;;;;;;;;;;;;;;9.08;100.00;101769.53;10498813;28;19925;-63
2023/03/19 20:59:55;;;;;;;;;;;;;;;9.13;100.00;101783.28;10496190;28;19929;-63
2023/03/19 21:04:57;;;;;;;;;;;;;;;9.05;100.00;101787.91;10479558;28;19932;-63
2023/03/19 21:10:00;;;;;;;;;;;;;;;9.03;100.00;101784.50;10498491;28;19925;-63
2023/03/19 21:15:02;;;;;;;;;;;;;;;9.59;100.00;101776.34;10478293;28;20337;-63
2023/03/19 21:20:04;;;;;;;;;;;;;;;9.04;100.00;101776.59;10495808;28;19932;-63
2023/03/19 21:25:07;;;;;;;;;;;;;;;9.06;100.00;101784.38;10495018;28;19925;-63
2023/03/19 21:30:09;;;;;;;;;;;;;;;9.04;100.00;101787.03;10503244;28;19925;-63
2023/03/19 21:35:16;;;;;;;;;;;;;;;9.02;100.00;101788.84;10449488;28;19925;-63
2023/03/19 21:40:25;;;;;;;;;;;;;;;9.11;100.00;101788.56;10473537;28;20286;-63
2023/03/19 21:45:31;;;;;;;;;;;;;;;9.45;100.00;101795.16;10505424;28;19932;-63
2023/03/19 21:50:34;;;;;;;;;;;;;;;9.03;100.00;101802.78;10504051;28;19924;-63
2023/03/19 21:55:37;;;;;;;;;;;;;;;9.28;100.00;101790.56;10504232;28;19970;-63
2023/03/19 22:00:39;;;;;;;;;;;;;;;9.73;100.00;101804.59;10502037;28;19925;-62
2023/03/19 22:05:41;;;;;;;;;;;;;;;9.44;100.00;101800.44;10501819;28;20360;-63
2023/03/19 22:10:44;;;;;;;;;;;;;;;9.49;100.00;101794.13;10501686;28;20406;-63
2023/03/19 22:15:46;;;;;;;;;;;;;;;9.43;100.00;101802.22;10504365;28;19925;-63
2023/03/19 22:20:49;;;;;;;;;;;;;;;9.37;100.00;101810.28;10503008;28;20276;-62
2023/03/19 22:25:51;;;;;;;;;;;;;;;9.59;100.00;101812.94;10503014;28;19925;-62
2023/03/19 22:30:53;;;;;;;;;;;;;;;9.57;100.00;101806.09;10484229;28;19931;-63
2023/03/19 22:35:56;;;;;;;;;;;;;;;9.39;100.00;101805.84;10502282;28;19924;-63
2023/03/19 22:40:58;;;;;;;;;;;;;;;9.47;100.00;101811.63;10502512;28;20288;-63
2023/03/19 22:46:07;;;;;;;;;;;;;;;9.25;100.00;101818.56;10502514;28;19928;-63
2023/03/19 22:51:12;;;;;;;;;;;;;;;8.99;100.00;101824.69;10468084;28;19924;-63
2023/03/19 22:56:14;;;;;;;;;;;;;;;8.99;100.00;101825.53;10484555;28;19931;-63
2023/03/19 23:01:20;;;;;;;;;;;;;;;9.14;100.00;101831.97;10501796;28;19924;-63
2023/03/19 23:06:24;;;;;;;;;;;;;;;9.21;100.00;101836.13;10501437;28;19925;-63
2023/03/19 23:11:32;;;;;;;;;;;;;;;9.36;100.00;101836.47;10501542;28;20379;-63
2023/03/19 23:16:34;;;;;;;;;;;;;;;9.45;100.00;101844.84;10502022;28;19931;-63
2023/03/19 23:21:36;;;;;;;;;;;;;;;8.98;100.00;101857.78;10499925;28;20393;-63
2023/03/19 23:26:39;;;;;;;;;;;;;;;9.15;100.00;101866.81;10499714;28;19978;-63
2023/03/19 23:31:41;;;;;;;;;;;;;;;9.15;100.00;101870.28;10482848;28;19974;-63
2023/03/19 23:36:44;;;;;;;;;;;;;;;8.87;100.00;101875.56;10501155;28;19924;-63
2023/03/19 23:41:47;;;;;;;;;;;;;;;8.82;100.00;101870.50;10499106;28;19986;-63
2023/03/19 23:46:49;;;;;;;;;;;;;;;9.06;100.00;101879.28;10499463;28;19924;-63
2023/03/19 23:51:51;;;;;;;;;;;;;;;9.26;100.00;101883.84;10482746;28;19925;-62
2023/03/19 23:56:57;;;;;;;;;;;;;;;9.13;100.00;101873.84;10481942;28;20030;-63
